sensor_id;sensor_type;location;lat;lon;timestamp;P1;durP1;ratioP1;P2;durP2;ratioP2
16308;SDS011;8263;48.880;9.276;2023-03-29T00:02:16;135.25;;;125.57;;
16308;SDS011;8263;48.880;9.276;2023-03-29T00:04:43;135.70;;;126.10;;
16308;SDS011;8263;48.880;9.276;2023-03-29T00:07:10;135.68;;;126.07;;
16308;SDS011;8263;48.880;9.276;2023-03-29T00:09:38;135.05;;;125.50;;
16308;SDS011;8263;48.880;9.276;2023-03-29T00:12:04;133.95;;;124.47;;
16308;SDS011;8263;48.880;9.276;2023-03-29T00:14:31;134.23;;;124.72;;
16308;SDS011;8263;48.880;9.276;2023-03-29T00:16:59;135.68;;;126.05;;
16308;SDS011;8263;48.880;9.276;2023-03-29T00:19:25;134.30;;;124.80;;
16308;SDS011;8263;48.880;9.276;2023-03-29T00:21:53;135.27;;;125.68;;
16308;SDS011;8263;48.880;9.276;2023-03-29T00:24:19;134.77;;;125.25;;
16308;SDS011;8263;48.880;9.276;2023-03-29T00:26:47;136.60;;;126.90;;
16308;SDS011;8263;48.880;9.276;2023-03-29T00:29:14;134.25;;;124.72;;
16308;SDS011;8263;48.880;9.276;2023-03-29T00:31:40;133.20;;;123.82;;
16308;SDS011;8263;48.880;9.276;2023-03-29T00:34:09;134.18;;;124.70;;
16308;SDS011;8263;48.880;9.276;2023-03-29T00:36:36;136.70;;;127.00;;
16308;SDS011;8263;48.880;9.276;2023-03-29T00:39:04;134.93;;;125.40;;
16308;SDS011;8263;48.880;9.276;2023-03-29T00:41:30;134.68;;;125.10;;
16308;SDS011;8263;48.880;9.276;2023-03-29T00:43:57;135.07;;;125.47;;
16308;SDS011;8263;48.880;9.276;2023-03-29T00:46:25;134.43;;;124.88;;
16308;SDS011;8263;48.880;9.276;2023-03-29T00:48:52;135.90;;;126.28;;
16308;SDS011;8263;48.880;9.276;2023-03-29T00:51:22;134.15;;;124.68;;
16308;SDS011;8263;48.880;9.276;2023-03-29T00:53:51;134.60;;;125.00;;
16308;SDS011;8263;48.880;9.276;2023-03-29T00:56:19;134.02;;;124.57;;
16308;SDS011;8263;48.880;9.276;2023-03-29T00:58:48;135.35;;;125.75;;
16308;SDS011;8263;48.880;9.276;2023-03-29T01:01:18;134.35;;;124.85;;
16308;SDS011;8263;48.880;9.276;2023-03-29T01:03:47;136.18;;;126.50;;
16308;SDS011;8263;48.880;9.276;2023-03-29T01:06:18;135.85;;;126.22;;
16308;SDS011;8263;48.880;9.276;2023-03-29T01:08:48;134.70;;;125.18;;
16308;SDS011;8263;48.880;9.276;2023-03-29T01:11:17;133.98;;;124.53;;
16308;SDS011;8263;48.880;9.276;2023-03-29T01:13:45;134.85;;;125.28;;
16308;SDS011;8263;48.880;9.276;2023-03-29T01:16:14;134.35;;;124.55;;
16308;SDS011;8263;48.880;9.276;2023-03-29T01:18:43;134.77;;;125.22;;
16308;SDS011;8263;48.880;9.276;2023-03-29T01:21:15;134.98;;;125.40;;
16308;SDS011;8263;48.880;9.276;2023-03-29T01:23:49;135.18;;;125.60;;
16308;SDS011;8263;48.880;9.276;2023-03-29T01:26:23;136.40;;;126.70;;
16308;SDS011;8263;48.880;9.276;2023-03-29T01:28:56;136.65;;;126.90;;
16308;SDS011;8263;48.880;9.276;2023-03-29T01:31:25;137.05;;;127.30;;
16308;SDS011;8263;48.880;9.276;2023-03-29T01:33:54;134.73;;;125.20;;
16308;SDS011;8263;48.880;9.276;2023-03-29T01:36:24;134.73;;;125.18;;
16308;SDS011;8263;48.880;9.276;2023-03-29T01:38:52;136.20;;;126.53;;
16308;SDS011;8263;48.880;9.276;2023-03-29T01:41:20;133.10;;;123.68;;
16308;SDS011;8263;48.880;9.276;2023-03-29T01:43:48;137.90;;;128.02;;
16308;SDS011;8263;48.880;9.276;2023-03-29T01:46:20;135.77;;;126.18;;
16308;SDS011;8263;48.880;9.276;2023-03-29T01:48:50;136.65;;;126.95;;
16308;SDS011;8263;48.880;9.276;2023-03-29T01:51:20;134.63;;;125.10;;
16308;SDS011;8263;48.880;9.276;2023-03-29T01:53:50;134.98;;;125.38;;
16308;SDS011;8263;48.880;9.276;2023-03-29T01:56:18;137.52;;;127.65;;
16308;SDS011;8263;48.880;9.276;2023-03-29T01:58:47;135.30;;;125.68;;
16308;SDS011;8263;48.880;9.276;2023-03-29T02:01:15;135.57;;;125.95;;
16308;SDS011;8263;48.880;9.276;2023-03-29T02:03:45;134.73;;;125.13;;
16308;SDS011;8263;48.880;9.276;2023-03-29T02:06:14;135.02;;;125.47;;
16308;SDS011;8263;48.880;9.276;2023-03-29T02:08:41;133.43;;;123.95;;
16308;SDS011;8263;48.880;9.276;2023-03-29T02:11:09;136.65;;;126.88;;
16308;SDS011;8263;48.880;9.276;2023-03-29T02:13:36;138.65;;;128.65;;
16308;SDS011;8263;48.880;9.276;2023-03-29T02:16:02;135.88;;;126.18;;
16308;SDS011;8263;48.880;9.276;2023-03-29T02:18:30;136.23;;;126.53;;
16308;SDS011;8263;48.880;9.276;2023-03-29T02:20:58;135.02;;;125.43;;
16308;SDS011;8263;48.880;9.276;2023-03-29T02:23:26;137.00;;;127.20;;
16308;SDS011;8263;48.880;9.276;2023-03-29T02:25:53;134.38;;;124.82;;
16308;SDS011;8263;48.880;9.276;2023-03-29T02:28:21;136.75;;;127.03;;
16308;SDS011;8263;48.880;9.276;2023-03-29T02:30:49;135.05;;;125.45;;
16308;SDS011;8263;48.880;9.276;2023-03-29T02:33:17;137.18;;;127.35;;
16308;SDS011;8263;48.880;9.276;2023-03-29T02:35:48;135.82;;;126.13;;
16308;SDS011;8263;48.880;9.276;2023-03-29T02:38:18;136.48;;;126.78;;
16308;SDS011;8263;48.880;9.276;2023-03-29T02:40:45;137.23;;;127.43;;
16308;SDS011;8263;48.880;9.276;2023-03-29T02:43:12;135.73;;;125.82;;
16308;SDS011;8263;48.880;9.276;2023-03-29T02:45:39;137.88;;;127.97;;
16308;SDS011;8263;48.880;9.276;2023-03-29T02:48:07;136.60;;;126.70;;
16308;SDS011;8263;48.880;9.276;2023-03-29T02:50:36;136.48;;;126.78;;
16308;SDS011;8263;48.880;9.276;2023-03-29T02:53:04;135.95;;;126.30;;
16308;SDS011;8263;48.880;9.276;2023-03-29T02:55:33;137.20;;;127.40;;
16308;SDS011;8263;48.880;9.276;2023-03-29T02:58:00;137.25;;;127.45;;
16308;SDS011;8263;48.880;9.276;2023-03-29T03:00:32;137.27;;;127.32;;
16308;SDS011;8263;48.880;9.276;2023-03-29T03:02:58;136.75;;;127.00;;
16308;SDS011;8263;48.880;9.276;2023-03-29T03:05:25;135.95;;;126.28;;
16308;SDS011;8263;48.880;9.276;2023-03-29T03:07:51;136.50;;;126.80;;
16308;SDS011;8263;48.880;9.276;2023-03-29T03:10:18;137.45;;;127.65;;
16308;SDS011;8263;48.880;9.276;2023-03-29T03:12:46;138.13;;;128.18;;
16308;SDS011;8263;48.880;9.276;2023-03-29T03:15:12;138.55;;;128.65;;
16308;SDS011;8263;48.880;9.276;2023-03-29T03:17:39;137.90;;;128.02;;
16308;SDS011;8263;48.880;9.276;2023-03-29T03:20:07;136.80;;;127.03;;
16308;SDS011;8263;48.880;9.276;2023-03-29T03:22:36;136.90;;;127.10;;
16308;SDS011;8263;48.880;9.276;2023-03-29T03:25:03;136.88;;;127.10;;
16308;SDS011;8263;48.880;9.276;2023-03-29T03:27:30;136.65;;;126.93;;
16308;SDS011;8263;48.880;9.276;2023-03-29T03:29:59;138.23;;;128.32;;
16308;SDS011;8263;48.880;9.276;2023-03-29T03:32:26;138.15;;;128.25;;
16308;SDS011;8263;48.880;9.276;2023-03-29T03:34:52;137.82;;;127.93;;
16308;SDS011;8263;48.880;9.276;2023-03-29T03:37:19;138.98;;;129.00;;
16308;SDS011;8263;48.880;9.276;2023-03-29T03:39:46;136.90;;;127.13;;
16308;SDS011;8263;48.880;9.276;2023-03-29T03:42:13;136.70;;;126.90;;
16308;SDS011;8263;48.880;9.276;2023-03-29T03:44:39;136.77;;;126.95;;
16308;SDS011;8263;48.880;9.276;2023-03-29T03:47:07;137.88;;;127.97;;
16308;SDS011;8263;48.880;9.276;2023-03-29T03:49:34;136.45;;;126.72;;
16308;SDS011;8263;48.880;9.276;2023-03-29T03:52:00;137.27;;;127.47;;
16308;SDS011;8263;48.880;9.276;2023-03-29T03:54:27;135.32;;;125.72;;
16308;SDS011;8263;48.880;9.276;2023-03-29T03:56:53;137.48;;;127.63;;
16308;SDS011;8263;48.880;9.276;2023-03-29T03:59:19;137.93;;;128.05;;
16308;SDS011;8263;48.880;9.276;2023-03-29T04:01:46;137.60;;;127.72;;
16308;SDS011;8263;48.880;9.276;2023-03-29T04:04:14;136.82;;;127.00;;
16308;SDS011;8263;48.880;9.276;2023-03-29T04:06:40;137.30;;;127.50;;
16308;SDS011;8263;48.880;9.276;2023-03-29T04:09:08;139.15;;;129.15;;
16308;SDS011;8263;48.880;9.276;2023-03-29T04:11:35;137.82;;;127.93;;
16308;SDS011;8263;48.880;9.276;2023-03-29T04:14:02;137.65;;;127.75;;
16308;SDS011;8263;48.880;9.276;2023-03-29T04:16:28;137.52;;;127.70;;
16308;SDS011;8263;48.880;9.276;2023-03-29T04:18:55;138.60;;;128.63;;
16308;SDS011;8263;48.880;9.276;2023-03-29T04:21:23;137.85;;;127.97;;
16308;SDS011;8263;48.880;9.276;2023-03-29T04:23:50;138.02;;;128.05;;
16308;SDS011;8263;48.880;9.276;2023-03-29T04:26:16;138.27;;;128.38;;
16308;SDS011;8263;48.880;9.276;2023-03-29T04:28:43;137.23;;;127.28;;
16308;SDS011;8263;48.880;9.276;2023-03-29T04:31:10;139.27;;;129.20;;
16308;SDS011;8263;48.880;9.276;2023-03-29T04:33:36;137.88;;;127.97;;
16308;SDS011;8263;48.880;9.276;2023-03-29T04:36:03;139.55;;;129.45;;
16308;SDS011;8263;48.880;9.276;2023-03-29T04:38:31;137.93;;;128.02;;
16308;SDS011;8263;48.880;9.276;2023-03-29T04:41:00;138.43;;;128.52;;
16308;SDS011;8263;48.880;9.276;2023-03-29T04:43:27;136.98;;;127.18;;
16308;SDS011;8263;48.880;9.276;2023-03-29T04:45:55;138.05;;;128.15;;
16308;SDS011;8263;48.880;9.276;2023-03-29T04:48:22;137.55;;;127.68;;
16308;SDS011;8263;48.880;9.276;2023-03-29T04:50:48;138.45;;;128.48;;
16308;SDS011;8263;48.880;9.276;2023-03-29T04:53:15;139.32;;;129.32;;
16308;SDS011;8263;48.880;9.276;2023-03-29T04:55:44;137.70;;;127.80;;
16308;SDS011;8263;48.880;9.276;2023-03-29T04:58:11;139.88;;;129.77;;
16308;SDS011;8263;48.880;9.276;2023-03-29T05:00:38;139.45;;;129.35;;
16308;SDS011;8263;48.880;9.276;2023-03-29T05:03:05;137.38;;;127.55;;
16308;SDS011;8263;48.880;9.276;2023-03-29T05:05:32;137.82;;;127.93;;
16308;SDS011;8263;48.880;9.276;2023-03-29T05:07:58;138.90;;;128.90;;
16308;SDS011;8263;48.880;9.276;2023-03-29T05:10:24;139.90;;;129.80;;
16308;SDS011;8263;48.880;9.276;2023-03-29T05:12:52;137.52;;;127.68;;
16308;SDS011;8263;48.880;9.276;2023-03-29T05:15:20;139.05;;;128.98;;
16308;SDS011;8263;48.880;9.276;2023-03-29T05:17:46;139.00;;;129.00;;
16308;SDS011;8263;48.880;9.276;2023-03-29T05:20:13;138.35;;;128.43;;
16308;SDS011;8263;48.880;9.276;2023-03-29T05:22:40;138.90;;;128.90;;
16308;SDS011;8263;48.880;9.276;2023-03-29T05:25:07;138.55;;;128.63;;
16308;SDS011;8263;48.880;9.276;2023-03-29T05:27:35;139.07;;;129.02;;
16308;SDS011;8263;48.880;9.276;2023-03-29T05:30:03;139.40;;;129.40;;
16308;SDS011;8263;48.880;9.276;2023-03-29T05:32:29;138.80;;;128.82;;
16308;SDS011;8263;48.880;9.276;2023-03-29T05:34:56;138.60;;;128.60;;
16308;SDS011;8263;48.880;9.276;2023-03-29T05:37:22;139.00;;;128.82;;
16308;SDS011;8263;48.880;9.276;2023-03-29T05:39:49;137.57;;;127.70;;
16308;SDS011;8263;48.880;9.276;2023-03-29T05:42:15;136.98;;;127.18;;
16308;SDS011;8263;48.880;9.276;2023-03-29T05:44:46;138.07;;;128.15;;
16308;SDS011;8263;48.880;9.276;2023-03-29T05:47:14;139.43;;;129.38;;
16308;SDS011;8263;48.880;9.276;2023-03-29T05:49:40;138.32;;;128.38;;
16308;SDS011;8263;48.880;9.276;2023-03-29T05:52:07;138.25;;;128.27;;
16308;SDS011;8263;48.880;9.276;2023-03-29T05:54:33;138.30;;;128.40;;
16308;SDS011;8263;48.880;9.276;2023-03-29T05:56:59;139.07;;;129.05;;
16308;SDS011;8263;48.880;9.276;2023-03-29T05:59:26;138.52;;;128.48;;
16308;SDS011;8263;48.880;9.276;2023-03-29T06:01:53;137.40;;;127.55;;
16308;SDS011;8263;48.880;9.276;2023-03-29T06:04:21;138.45;;;128.35;;
16308;SDS011;8263;48.880;9.276;2023-03-29T06:06:48;137.95;;;128.05;;
16308;SDS011;8263;48.880;9.276;2023-03-29T06:09:14;139.13;;;129.07;;
16308;SDS011;8263;48.880;9.276;2023-03-29T06:11:41;138.10;;;128.20;;
16308;SDS011;8263;48.880;9.276;2023-03-29T06:14:09;139.27;;;129.27;;
16308;SDS011;8263;48.880;9.276;2023-03-29T06:16:35;139.50;;;129.40;;
16308;SDS011;8263;48.880;9.276;2023-03-29T06:19:01;138.50;;;128.55;;
16308;SDS011;8263;48.880;9.276;2023-03-29T06:21:31;138.38;;;128.38;;
16308;SDS011;8263;48.880;9.276;2023-03-29T06:23:57;139.45;;;129.32;;
16308;SDS011;8263;48.880;9.276;2023-03-29T06:26:24;138.13;;;128.02;;
16308;SDS011;8263;48.880;9.276;2023-03-29T06:28:51;137.65;;;127.75;;
16308;SDS011;8263;48.880;9.276;2023-03-29T06:31:18;139.75;;;129.65;;
16308;SDS011;8263;48.880;9.276;2023-03-29T06:33:44;137.85;;;127.93;;
16308;SDS011;8263;48.880;9.276;2023-03-29T06:36:11;135.55;;;125.85;;
16308;SDS011;8263;48.880;9.276;2023-03-29T06:38:41;136.98;;;127.18;;
16308;SDS011;8263;48.880;9.276;2023-03-29T06:41:09;136.93;;;127.03;;
16308;SDS011;8263;48.880;9.276;2023-03-29T06:43:36;137.50;;;127.53;;
16308;SDS011;8263;48.880;9.276;2023-03-29T06:46:02;139.30;;;129.27;;
16308;SDS011;8263;48.880;9.276;2023-03-29T06:48:32;137.82;;;127.93;;
16308;SDS011;8263;48.880;9.276;2023-03-29T06:50:59;139.27;;;129.23;;
16308;SDS011;8263;48.880;9.276;2023-03-29T06:53:25;138.88;;;128.88;;
16308;SDS011;8263;48.880;9.276;2023-03-29T06:55:53;138.70;;;128.30;;
16308;SDS011;8263;48.880;9.276;2023-03-29T06:58:19;140.15;;;129.98;;
16308;SDS011;8263;48.880;9.276;2023-03-29T07:00:46;138.38;;;128.38;;
16308;SDS011;8263;48.880;9.276;2023-03-29T07:03:13;138.40;;;128.48;;
16308;SDS011;8263;48.880;9.276;2023-03-29T07:05:44;140.15;;;130.05;;
16308;SDS011;8263;48.880;9.276;2023-03-29T07:08:11;138.07;;;127.95;;
16308;SDS011;8263;48.880;9.276;2023-03-29T07:10:40;138.82;;;128.73;;
16308;SDS011;8263;48.880;9.276;2023-03-29T07:13:09;138.48;;;128.52;;
16308;SDS011;8263;48.880;9.276;2023-03-29T07:15:37;138.68;;;128.70;;
16308;SDS011;8263;48.880;9.276;2023-03-29T07:18:04;139.18;;;129.15;;
16308;SDS011;8263;48.880;9.276;2023-03-29T07:20:30;138.90;;;128.80;;
16308;SDS011;8263;48.880;9.276;2023-03-29T07:22:57;137.30;;;127.43;;
16308;SDS011;8263;48.880;9.276;2023-03-29T07:25:24;138.43;;;128.35;;
16308;SDS011;8263;48.880;9.276;2023-03-29T07:27:51;137.90;;;128.00;;
16308;SDS011;8263;48.880;9.276;2023-03-29T07:30:20;138.38;;;128.48;;
16308;SDS011;8263;48.880;9.276;2023-03-29T07:32:48;138.48;;;128.45;;
16308;SDS011;8263;48.880;9.276;2023-03-29T07:35:15;139.55;;;129.35;;
16308;SDS011;8263;48.880;9.276;2023-03-29T07:37:43;139.55;;;129.35;;
16308;SDS011;8263;48.880;9.276;2023-03-29T07:40:10;139.50;;;129.30;;
16308;SDS011;8263;48.880;9.276;2023-03-29T07:42:40;137.73;;;127.88;;
16308;SDS011;8263;48.880;9.276;2023-03-29T07:45:08;138.20;;;128.30;;
16308;SDS011;8263;48.880;9.276;2023-03-29T07:47:36;139.45;;;129.43;;
16308;SDS011;8263;48.880;9.276;2023-03-29T07:50:03;138.25;;;128.30;;
16308;SDS011;8263;48.880;9.276;2023-03-29T07:52:31;136.57;;;126.82;;
16308;SDS011;8263;48.880;9.276;2023-03-29T07:54:58;137.20;;;127.38;;
16308;SDS011;8263;48.880;9.276;2023-03-29T07:57:25;137.63;;;127.63;;
16308;SDS011;8263;48.880;9.276;2023-03-29T07:59:51;138.25;;;128.35;;
16308;SDS011;8263;48.880;9.276;2023-03-29T08:02:18;137.40;;;127.35;;
16308;SDS011;8263;48.880;9.276;2023-03-29T08:04:46;139.07;;;129.05;;
16308;SDS011;8263;48.880;9.276;2023-03-29T08:07:13;137.80;;;127.95;;
16308;SDS011;8263;48.880;9.276;2023-03-29T08:09:40;136.75;;;127.05;;
16308;SDS011;8263;48.880;9.276;2023-03-29T08:12:07;137.48;;;127.57;;
16308;SDS011;8263;48.880;9.276;2023-03-29T08:14:33;137.65;;;127.80;;
16308;SDS011;8263;48.880;9.276;2023-03-29T08:17:00;135.90;;;126.20;;
16308;SDS011;8263;48.880;9.276;2023-03-29T08:19:27;136.05;;;126.28;;
16308;SDS011;8263;48.880;9.276;2023-03-29T08:21:54;136.48;;;126.70;;
16308;SDS011;8263;48.880;9.276;2023-03-29T08:24:21;136.13;;;126.45;;
16308;SDS011;8263;48.880;9.276;2023-03-29T08:26:47;135.43;;;125.82;;
16308;SDS011;8263;48.880;9.276;2023-03-29T08:29:14;135.13;;;125.53;;
16308;SDS011;8263;48.880;9.276;2023-03-29T08:31:41;135.80;;;126.07;;
16308;SDS011;8263;48.880;9.276;2023-03-29T08:34:07;135.13;;;125.40;;
16308;SDS011;8263;48.880;9.276;2023-03-29T08:36:33;135.15;;;125.55;;
16308;SDS011;8263;48.880;9.276;2023-03-29T08:39:02;135.30;;;125.72;;
16308;SDS011;8263;48.880;9.276;2023-03-29T08:41:33;135.65;;;126.05;;
16308;SDS011;8263;48.880;9.276;2023-03-29T08:44:12;135.30;;;125.60;;
16308;SDS011;8263;48.880;9.276;2023-03-29T08:46:43;134.45;;;124.95;;
16308;SDS011;8263;48.880;9.276;2023-03-29T08:49:13;133.55;;;124.07;;
16308;SDS011;8263;48.880;9.276;2023-03-29T08:51:41;134.15;;;124.65;;
16308;SDS011;8263;48.880;9.276;2023-03-29T08:54:13;135.40;;;125.80;;
16308;SDS011;8263;48.880;9.276;2023-03-29T08:56:40;134.85;;;125.28;;
16308;SDS011;8263;48.880;9.276;2023-03-29T08:59:12;131.95;;;122.65;;
16308;SDS011;8263;48.880;9.276;2023-03-29T09:01:40;133.63;;;124.18;;
16308;SDS011;8263;48.880;9.276;2023-03-29T09:04:07;134.18;;;124.68;;
16308;SDS011;8263;48.880;9.276;2023-03-29T09:06:37;134.13;;;124.60;;
16308;SDS011;8263;48.880;9.276;2023-03-29T09:09:04;134.15;;;124.65;;
16308;SDS011;8263;48.880;9.276;2023-03-29T09:11:36;134.23;;;124.10;;
16308;SDS011;8263;48.880;9.276;2023-03-29T09:16:46;132.77;;;123.40;;
16308;SDS011;8263;48.880;9.276;2023-03-29T09:19:15;132.82;;;123.35;;
16308;SDS011;8263;48.880;9.276;2023-03-29T09:21:46;132.35;;;122.68;;
16308;SDS011;8263;48.880;9.276;2023-03-29T09:27:09;132.05;;;122.80;;
16308;SDS011;8263;48.880;9.276;2023-03-29T09:29:40;131.82;;;122.60;;
16308;SDS011;8263;48.880;9.276;2023-03-29T09:32:12;131.98;;;122.72;;
16308;SDS011;8263;48.880;9.276;2023-03-29T09:34:42;130.23;;;121.18;;
16308;SDS011;8263;48.880;9.276;2023-03-29T09:37:10;132.85;;;123.55;;
16308;SDS011;8263;48.880;9.276;2023-03-29T09:39:37;132.10;;;122.80;;
16308;SDS011;8263;48.880;9.276;2023-03-29T09:42:05;131.82;;;122.63;;
16308;SDS011;8263;48.880;9.276;2023-03-29T09:44:36;132.35;;;123.07;;
16308;SDS011;8263;48.880;9.276;2023-03-29T09:47:05;130.38;;;121.25;;
16308;SDS011;8263;48.880;9.276;2023-03-29T09:49:33;129.95;;;120.85;;
16308;SDS011;8263;48.880;9.276;2023-03-29T09:52:02;131.40;;;122.20;;
16308;SDS011;8263;48.880;9.276;2023-03-29T09:54:30;129.48;;;120.47;;
16308;SDS011;8263;48.880;9.276;2023-03-29T09:56:57;129.55;;;119.63;;
16308;SDS011;8263;48.880;9.276;2023-03-29T09:59:23;126.88;;;118.15;;
16308;SDS011;8263;48.880;9.276;2023-03-29T10:01:51;130.50;;;121.45;;
16308;SDS011;8263;48.880;9.276;2023-03-29T10:04:18;127.72;;;118.93;;
16308;SDS011;8263;48.880;9.276;2023-03-29T10:06:46;129.85;;;120.85;;
16308;SDS011;8263;48.880;9.276;2023-03-29T10:09:15;126.90;;;118.20;;
16308;SDS011;8263;48.880;9.276;2023-03-29T10:11:45;125.65;;;117.05;;
16308;SDS011;8263;48.880;9.276;2023-03-29T10:14:13;126.28;;;117.63;;
16308;SDS011;8263;48.880;9.276;2023-03-29T10:16:42;127.43;;;118.53;;
16308;SDS011;8263;48.880;9.276;2023-03-29T10:19:19;127.78;;;118.97;;
16308;SDS011;8263;48.880;9.276;2023-03-29T10:21:46;127.85;;;118.97;;
16308;SDS011;8263;48.880;9.276;2023-03-29T10:24:13;124.97;;;116.40;;
16308;SDS011;8263;48.880;9.276;2023-03-29T10:26:43;126.57;;;117.90;;
16308;SDS011;8263;48.880;9.276;2023-03-29T10:29:09;123.80;;;115.20;;
16308;SDS011;8263;48.880;9.276;2023-03-29T10:31:36;124.78;;;116.28;;
16308;SDS011;8263;48.880;9.276;2023-03-29T10:34:06;124.72;;;116.32;;
16308;SDS011;8263;48.880;9.276;2023-03-29T10:36:35;125.50;;;116.90;;
16308;SDS011;8263;48.880;9.276;2023-03-29T10:39:05;124.07;;;115.60;;
16308;SDS011;8263;48.880;9.276;2023-03-29T10:41:32;124.13;;;115.68;;
16308;SDS011;8263;48.880;9.276;2023-03-29T10:43:59;121.80;;;113.57;;
16308;SDS011;8263;48.880;9.276;2023-03-29T10:46:26;120.50;;;112.35;;
16308;SDS011;8263;48.880;9.276;2023-03-29T10:48:54;122.65;;;114.35;;
16308;SDS011;8263;48.880;9.276;2023-03-29T10:51:22;123.53;;;115.13;;
16308;SDS011;8263;48.880;9.276;2023-03-29T10:53:50;123.10;;;114.80;;
16308;SDS011;8263;48.880;9.276;2023-03-29T10:56:21;123.57;;;115.18;;
16308;SDS011;8263;48.880;9.276;2023-03-29T10:58:54;123.35;;;114.95;;
16308;SDS011;8263;48.880;9.276;2023-03-29T11:01:24;121.75;;;113.55;;
16308;SDS011;8263;48.880;9.276;2023-03-29T11:03:55;122.55;;;114.25;;
16308;SDS011;8263;48.880;9.276;2023-03-29T11:06:25;123.47;;;115.07;;
16308;SDS011;8263;48.880;9.276;2023-03-29T11:08:57;121.72;;;113.50;;
16308;SDS011;8263;48.880;9.276;2023-03-29T11:11:39;122.32;;;114.03;;
16308;SDS011;8263;48.880;9.276;2023-03-29T11:14:10;124.25;;;115.85;;
16308;SDS011;8263;48.880;9.276;2023-03-29T11:16:39;123.18;;;114.70;;
16308;SDS011;8263;48.880;9.276;2023-03-29T11:19:11;122.22;;;113.95;;
16308;SDS011;8263;48.880;9.276;2023-03-29T11:21:42;121.05;;;112.75;;
16308;SDS011;8263;48.880;9.276;2023-03-29T11:24:23;120.47;;;112.30;;
16308;SDS011;8263;48.880;9.276;2023-03-29T11:26:54;120.40;;;112.32;;
16308;SDS011;8263;48.880;9.276;2023-03-29T11:29:25;120.82;;;112.72;;
16308;SDS011;8263;48.880;9.276;2023-03-29T11:31:56;120.20;;;112.03;;
16308;SDS011;8263;48.880;9.276;2023-03-29T11:34:27;122.18;;;113.90;;
16308;SDS011;8263;48.880;9.276;2023-03-29T11:36:56;121.38;;;113.18;;
16308;SDS011;8263;48.880;9.276;2023-03-29T11:39:29;118.85;;;110.85;;
16308;SDS011;8263;48.880;9.276;2023-03-29T11:42:02;118.68;;;110.72;;
16308;SDS011;8263;48.880;9.276;2023-03-29T11:44:30;120.00;;;111.97;;
16308;SDS011;8263;48.880;9.276;2023-03-29T11:46:58;119.63;;;111.63;;
16308;SDS011;8263;48.880;9.276;2023-03-29T11:49:27;116.85;;;109.05;;
16308;SDS011;8263;48.880;9.276;2023-03-29T11:51:57;118.28;;;110.38;;
16308;SDS011;8263;48.880;9.276;2023-03-29T11:54:29;116.85;;;108.82;;
16308;SDS011;8263;48.880;9.276;2023-03-29T11:56:58;115.35;;;107.72;;
16308;SDS011;8263;48.880;9.276;2023-03-29T11:59:28;114.60;;;107.00;;
16308;SDS011;8263;48.880;9.276;2023-03-29T12:01:58;115.00;;;107.40;;
16308;SDS011;8263;48.880;9.276;2023-03-29T12:04:28;116.70;;;108.90;;
16308;SDS011;8263;48.880;9.276;2023-03-29T12:06:58;115.93;;;108.22;;
16308;SDS011;8263;48.880;9.276;2023-03-29T12:09:30;115.68;;;107.97;;
16308;SDS011;8263;48.880;9.276;2023-03-29T12:12:00;114.88;;;107.10;;
16308;SDS011;8263;48.880;9.276;2023-03-29T12:14:29;114.90;;;107.28;;
16308;SDS011;8263;48.880;9.276;2023-03-29T12:17:04;111.30;;;103.82;;
16308;SDS011;8263;48.880;9.276;2023-03-29T12:19:33;111.90;;;104.50;;
16308;SDS011;8263;48.880;9.276;2023-03-29T12:22:00;112.13;;;104.28;;
16308;SDS011;8263;48.880;9.276;2023-03-29T12:24:27;111.60;;;104.22;;
16308;SDS011;8263;48.880;9.276;2023-03-29T12:27:06;110.32;;;102.93;;
16308;SDS011;8263;48.880;9.276;2023-03-29T12:29:39;109.57;;;102.38;;
16308;SDS011;8263;48.880;9.276;2023-03-29T12:32:14;110.07;;;102.88;;
16308;SDS011;8263;48.880;9.276;2023-03-29T12:34:49;110.03;;;102.75;;
16308;SDS011;8263;48.880;9.276;2023-03-29T12:37:27;111.28;;;103.97;;
16308;SDS011;8263;48.880;9.276;2023-03-29T12:40:00;106.90;;;99.90;;
16308;SDS011;8263;48.880;9.276;2023-03-29T12:42:29;109.32;;;102.13;;
16308;SDS011;8263;48.880;9.276;2023-03-29T12:44:56;108.43;;;101.32;;
16308;SDS011;8263;48.880;9.276;2023-03-29T12:47:25;109.30;;;102.20;;
16308;SDS011;8263;48.880;9.276;2023-03-29T12:49:54;108.13;;;101.07;;
16308;SDS011;8263;48.880;9.276;2023-03-29T12:52:23;107.85;;;100.85;;
16308;SDS011;8263;48.880;9.276;2023-03-29T12:54:54;108.15;;;101.00;;
16308;SDS011;8263;48.880;9.276;2023-03-29T12:57:25;107.55;;;100.53;;
16308;SDS011;8263;48.880;9.276;2023-03-29T12:59:53;109.68;;;102.47;;
16308;SDS011;8263;48.880;9.276;2023-03-29T13:02:24;108.78;;;101.68;;
16308;SDS011;8263;48.880;9.276;2023-03-29T13:04:52;107.35;;;100.03;;
16308;SDS011;8263;48.880;9.276;2023-03-29T13:07:29;108.90;;;101.80;;
16308;SDS011;8263;48.880;9.276;2023-03-29T13:09:56;109.05;;;101.93;;
16308;SDS011;8263;48.880;9.276;2023-03-29T13:12:24;109.72;;;102.53;;
16308;SDS011;8263;48.880;9.276;2023-03-29T13:14:53;109.32;;;102.22;;
16308;SDS011;8263;48.880;9.276;2023-03-29T13:17:23;107.75;;;100.68;;
16308;SDS011;8263;48.880;9.276;2023-03-29T13:19:52;107.25;;;100.25;;
16308;SDS011;8263;48.880;9.276;2023-03-29T13:22:35;105.50;;;98.50;;
16308;SDS011;8263;48.880;9.276;2023-03-29T13:25:08;108.75;;;101.65;;
16308;SDS011;8263;48.880;9.276;2023-03-29T13:27:37;107.97;;;100.93;;
16308;SDS011;8263;48.880;9.276;2023-03-29T13:32:51;106.28;;;99.38;;
16308;SDS011;8263;48.880;9.276;2023-03-29T13:35:24;105.13;;;98.28;;
16308;SDS011;8263;48.880;9.276;2023-03-29T13:37:57;106.55;;;99.60;;
16308;SDS011;8263;48.880;9.276;2023-03-29T13:40:32;108.10;;;101.05;;
16308;SDS011;8263;48.880;9.276;2023-03-29T13:43:07;106.28;;;99.38;;
16308;SDS011;8263;48.880;9.276;2023-03-29T13:45:34;107.50;;;100.50;;
16308;SDS011;8263;48.880;9.276;2023-03-29T13:48:02;108.18;;;101.10;;
16308;SDS011;8263;48.880;9.276;2023-03-29T13:50:32;106.40;;;99.45;;
16308;SDS011;8263;48.880;9.276;2023-03-29T13:53:00;107.05;;;100.05;;
16308;SDS011;8263;48.880;9.276;2023-03-29T13:55:29;106.78;;;99.85;;
16308;SDS011;8263;48.880;9.276;2023-03-29T13:57:58;107.18;;;100.22;;
16308;SDS011;8263;48.880;9.276;2023-03-29T14:00:26;105.65;;;98.78;;
16308;SDS011;8263;48.880;9.276;2023-03-29T14:02:55;106.25;;;99.32;;
16308;SDS011;8263;48.880;9.276;2023-03-29T14:05:25;106.95;;;99.97;;
16308;SDS011;8263;48.880;9.276;2023-03-29T14:07:53;105.28;;;98.47;;
16308;SDS011;8263;48.880;9.276;2023-03-29T14:10:21;107.90;;;100.80;;
16308;SDS011;8263;48.880;9.276;2023-03-29T14:12:49;105.22;;;98.40;;
16308;SDS011;8263;48.880;9.276;2023-03-29T14:15:22;105.68;;;98.80;;
16308;SDS011;8263;48.880;9.276;2023-03-29T14:17:53;105.85;;;98.95;;
16308;SDS011;8263;48.880;9.276;2023-03-29T14:20:20;108.13;;;101.05;;
16308;SDS011;8263;48.880;9.276;2023-03-29T14:22:48;107.97;;;100.97;;
16308;SDS011;8263;48.880;9.276;2023-03-29T14:25:15;106.47;;;99.55;;